Aviation Digital Data Service (ADDS)

Output produced by METARs form (1615 UTC 01 October 2014)
found at http://www.aviationweather.gov/adds/metars/
 
KLNS 011553Z 05004KT 7SM OVC018 18/14 A3006 RMK AO2 SLP179 T01830144
KLNS 011453Z 00000KT 5SM HZ OVC015 17/14 A3007 RMK AO2 SLP181 T01720144 51014
KLNS 011423Z 07004KT 4SM HZ FEW009 OVC015 17/14 A3007 RMK AO2 T01720144
KLNS 011353Z 06005KT 4SM BR OVC012 17/15 A3006 RMK AO2 SLP177 T01670150
KLNS 011253Z 10004KT 3SM BR OVC010 16/14 A3004 RMK AO2 SLP173 T01560144
KLNS 011208Z 00000KT 3SM BR OVC011 14/14 A3003 RMK AO2 T01390139 $
KLNS 011153Z 30003KT 2 1/2SM BR OVC013 14/13 A3003 RMK AO2 SLP167 60007 70037 T01390133 10161 20122 $
KLNS 011150Z 29003KT 3SM BR OVC013 14/13 A3003 RMK AO2 $
KLNS 011144Z 27003KT 2 1/2SM BR 14/13 A3002 RMK AO2 T01390133 $
KLNS 011055Z 00000KT 1/4SM FG VV013 14/13 A3001 RMK AO2 T01390133 $
KLNS 011053Z 00000KT 3/4SM BR CLR 14/13 A3001 RMK AO2 SLP160 VIS 1/2V1 T01390133 $
KLNS 011041Z 00000KT 1SM BR FEW011 13/13 A3000 RMK AO2 T01330133 $
KLNS 011034Z 00000KT 1SM BR VV011 13/13 A3000 RMK AO2 T01330128 $
KLNS 011020Z 26004KT 1/2SM FG VV008 13/13 A3000 RMK AO2 T01330133 $
KLNS 010953Z 00000KT 1SM BCFG SCT004 14/14 A2998 RMK AO2 SLP152 T01390139 $
KLNS 010950Z 00000KT 1SM BCFG SCT004 14/14 A2998 RMK AO2 $
KLNS 010936Z AUTO 34003KT 1/4SM FG VV006 14/13 A2998 RMK AO2 T01390133 $
KLNS 010920Z AUTO 27003KT 3/4SM BR VV005 14/13 A2998 RMK AO2 T01390133 $
KLNS 010916Z AUTO 26004KT 1 1/2SM BR FEW005 14/14 A2998 RMK AO2 T01440139 $
KLNS 010853Z AUTO 05003KT 3SM BR CLR 14/14 A2997 RMK AO2 SLP147 60007 T01440139 56006
KLNS 010844Z AUTO 00000KT 2 1/2SM BR CLR 14/14 A2998 RMK AO2 T01440139
KLNS 010826Z AUTO 00000KT 1 3/4SM BR CLR 14/14 A2998 RMK AO2 T01440139
KLNS 010753Z AUTO 01003KT 4SM BR FEW075 14/14 A2997 RMK AO2 RAE19 SLP148 P0000 T01440139
KLNS 010653Z AUTO VRB03KT 9SM -RA SCT070 OVC100 16/15 A2999 RMK AO2 SLP152 P0007 T01610150
KLNS 010605Z AUTO 05007KT 8SM -RA SCT026 BKN044 OVC055 16/15 A3000 RMK AO2 P0001 T01610150
KLNS 010553Z AUTO 04007KT 5SM RA BR FEW008 BKN026 OVC037 16/16 A3000 RMK AO2 SLP156 P0023 60030 T01610156 10200 20161 51008
KLNS 010520Z AUTO 02005KT 4SM -RA BR FEW009 BKN020 OVC032 17/16 A3000 RMK AO2 P0015 T01670156
KLNS 010515Z AUTO 04006KT 3SM RA BR BKN014 OVC020 17/16 A2999 RMK AO2 P0015 T01670156
KLNS 010459Z AUTO 02006KT 2 1/2SM +RA BR FEW009 OVC015 17/16 A2999 RMK AO2 P0006 T01670156
KLNS 010453Z AUTO 03004KT 3SM +RA BR FEW009 OVC013 17/15 A2999 RMK AO2 RAB05 SLP153 P0007 T01670150 402500144
KLNS 010448Z AUTO 03004KT 4SM RA BR FEW007 OVC014 17/15 A2999 RMK AO2 RAB05 P0004
KLNS 010434Z AUTO 00000KT 5SM VCTS -RA BR FEW007 OVC014 17/16 A2999 RMK AO2 LTG DSNT N AND S AND SW RAB05 P0001 T01720161
KLNS 010427Z AUTO 13005KT 6SM VCTS -RA BR OVC015 17/16 A2998 RMK AO2 LTG DSNT N AND S RAB05 P0001 T01720161
KLNS 010353Z AUTO 10004KT 10SM OVC018 18/16 A2997 RMK AO2 LTG DSNT SW-N SLP148 T01780156
KLNS 010328Z AUTO 09004KT 10SM BKN021 BKN045 OVC065 18/16 A2997 RMK AO2 LTG DSNT W AND NW T01780156
KLNS 010253Z AUTO 10003KT 10SM FEW023 OVC065 19/15 A2997 RMK AO2 LTG DSNT SW-NW SLP145 T01890150 53018
KLNS 010153Z 13006KT 10SM FEW070 BKN085 OVC120 19/14 A2995 RMK AO2 LTG DSNT SW-N SLP141 T01940144
KLNS 010053Z 08003KT 10SM SCT055 OVC070 19/15 A2993 RMK AO2 SLP133 T01940150
KLNS 302353Z 00000KT 10SM FEW050 BKN070 BKN090 20/15 A2991 RMK AO2 SLP128 T02000150 10250 20200 53015
KLNS 302253Z 18003KT 10SM OVC080 22/14 A2989 RMK AO2 SLP120 T02170144
KLNS 302153Z 14006KT 10SM OVC085 22/14 A2987 RMK AO2 SLP113 T02220144
KLNS 302053Z 14007KT 10SM FEW065 BKN090 23/14 A2987 RMK AO2 SLP113 T02330139 56010
KLNS 301953Z 13004KT 10SM BKN049 BKN085 24/14 A2988 RMK AO2 SLP114 T02390139
KLNS 301853Z 10SM OVC041 24/13 A2988 RMK AO2 SLP116 T02440133
KLNS 301753Z VRB03KT 10SM SCT041 BKN050 24/13 A2990 RMK AO2 SLP123 T02390133 10244 20156 58013
KLNS 301653Z 13006KT 10SM FEW034 24/14 A2992 RMK AO2 SLP129 T02390139
KLNS 301553Z 07005KT 7SM OVC110 23/16 A2993 RMK AO2 SLP132 T02280156
KLNS 301510Z VRB03KT 5SM HZ SCT014 OVC110 21/16 A2994 RMK AO2 T02060156
KLNS 301453Z 00000KT 4SM HZ FEW010 BKN014 BKN110 20/16 A2994 RMK AO2 SLP137 T02000161 58001
KLNS 301438Z 00000KT 3SM HZ BKN010 BKN110 19/16 A2994 RMK AO2 CIG 007V014 T01890161
KLNS 301403Z 00000KT 3SM BR BKN007 19/17 A2995 RMK AO2 CIG 005V012 T01890167
KLNS 301353Z 13003KT 2 1/2SM BR BKN007 18/17 A2995 RMK AO2 CIG 004V010 SLP140 T01780167
KLNS 301341Z 12003KT 2 1/2SM BR OVC007 17/17 A2995 RMK AO2 CIG 003V010 T01720167
KLNS 301253Z 00000KT 1 1/4SM BR OVC002 16/16 A2995 RMK AO2 SLP140 T01610161
KLNS 301153Z 00000KT M1/4SM FG VV002 16/16 A2994 RMK AO2 SLP138 T01560156 10167 20144 53010
KLNS 301053Z 10003KT 1/4SM FG VV002 16/16 A2992 RMK AO2 SLP132 T01560156
KLNS 300953Z AUTO 07003KT M1/4SM FG VV002 16/16 A2992 RMK AO2 SLP129 T01560156
KLNS 300923Z AUTO 08003KT M1/4SM FG VV002 16/15 A2991 RMK AO2 T01560150
KLNS 300853Z AUTO 07003KT M1/4SM FG VV001 15/15 A2991 RMK AO2 SLP127 T01500150 55003
KLNS 300753Z AUTO 06003KT M1/4SM FG VV001 15/15 A2991 RMK AO2 SLP126 T01500150
KLNS 300653Z AUTO 00000KT M1/4SM FG VV004 16/15 A2992 RMK AO2 SLP130 T01560150
KLNS 300650Z AUTO 12003KT M1/4SM FG VV004 16/15 A2992 RMK AO2
KLNS 300635Z AUTO 00000KT 1/4SM FG VV007 15/14 A2992 RMK AO2 T01500144
KLNS 300627Z AUTO 14003KT 1/2SM FG VV007 15/14 A2992 RMK AO2 T01500144
KLNS 300622Z AUTO 00000KT 1SM BR CLR 16/15 A2992 RMK AO2 T01560150
KLNS 300608Z AUTO 00000KT 2SM BR CLR 16/15 A2993 RMK AO2 T01610150
KLNS 300553Z AUTO 00000KT 1 1/2SM BR CLR 17/16 A2993 RMK AO2 SLP131 T01670161 10206 20167 56007
KLNS 300535Z AUTO 00000KT 1 1/4SM BR FEW008 17/16 A2993 RMK AO2 T01720161
KLNS 300519Z AUTO 00000KT 1/2SM FG VV008 17/16 A2993 RMK AO2 T01670156
KLNS 300453Z AUTO 00000KT 3/4SM BR CLR 17/16 A2993 RMK AO2 SLP131 T01670161 402330139